createdAt,value
2022-12-11T00:53:41.023Z,0.35
2022-12-11T00:56:17.105Z,0.39
2022-12-11T00:58:44.425Z,0.43
2022-12-11T01:01:14.575Z,0.48
2022-12-11T01:03:41.309Z,0.49
2022-12-11T01:06:08.691Z,0.31
2022-12-11T01:08:38.525Z,0.55
2022-12-11T01:11:08.619Z,0.57
2022-12-11T01:13:35.402Z,0.54
2022-12-11T01:16:10.447Z,0.59
2022-12-11T01:18:38.493Z,0.49
2022-12-11T01:21:10.164Z,0.54
2022-12-11T01:23:37.332Z,0.60
2022-12-11T01:26:13.757Z,0.38
2022-12-11T01:28:41.122Z,0.59
2022-12-11T01:31:10.069Z,0.71
2022-12-11T01:33:37.486Z,0.66
2022-12-11T01:36:09.670Z,0.68
2022-12-11T01:38:36.393Z,0.70
2022-12-11T01:41:03.797Z,0.71
2022-12-11T01:43:31.203Z,0.67
2022-12-11T01:45:58.033Z,0.76
2022-12-11T01:48:31.654Z,0.82
2022-12-11T01:51:02.565Z,0.78
2022-12-11T01:53:43.582Z,0.85
2022-12-11T01:56:11.021Z,0.86
2022-12-11T01:58:44.252Z,0.87
2022-12-11T02:01:25.436Z,0.85
2022-12-11T02:03:53.657Z,0.89
2022-12-11T02:06:31.311Z,0.91
2022-12-11T02:08:58.297Z,0.90
2022-12-11T02:11:35.995Z,0.77
2022-12-11T02:14:14.397Z,0.96
2022-12-11T02:16:51.789Z,0.91
2022-12-11T02:19:35.241Z,0.99
2022-12-11T02:22:08.989Z,0.92
2022-12-11T02:24:56.082Z,1.02
2022-12-11T02:27:44.404Z,1.02
2022-12-11T02:30:14.831Z,1.06
2022-12-11T02:32:53.954Z,1.05
2022-12-11T02:35:40.640Z,1.00
2022-12-11T02:38:17.870Z,1.04
2022-12-11T02:40:48.339Z,1.07
2022-12-11T02:43:16.276Z,1.11
2022-12-11T02:45:46.790Z,1.09
2022-12-11T02:48:15.219Z,1.05
2022-12-11T02:50:49.813Z,1.05
2022-12-11T02:53:21.810Z,0.93
2022-12-11T02:55:54.440Z,1.02
2022-12-11T02:58:28.430Z,1.08
2022-12-11T03:00:55.107Z,0.92
2022-12-11T03:03:22.866Z,1.12
2022-12-11T03:05:49.711Z,1.13
2022-12-11T03:08:18.598Z,1.03
2022-12-11T03:10:45.678Z,1.11
2022-12-11T03:13:14.879Z,1.23
2022-12-11T03:15:56.550Z,1.25
2022-12-11T03:18:29.006Z,1.25
2022-12-11T03:21:08.259Z,1.24
2022-12-11T03:23:48.227Z,1.23
2022-12-11T03:26:17.323Z,1.10
2022-12-11T03:29:03.155Z,1.10
2022-12-11T03:31:36.991Z,1.13
2022-12-11T03:34:13.845Z,1.04
2022-12-11T03:36:43.717Z,1.03
2022-12-11T03:39:16.352Z,1.10
2022-12-11T03:41:46.062Z,1.16
2022-12-11T03:44:13.618Z,1.15
2022-12-11T03:46:43.640Z,1.20
2022-12-11T03:49:41.965Z,1.06
2022-12-11T03:52:12.852Z,1.25
2022-12-11T03:54:41.896Z,1.18
2022-12-11T03:57:12.388Z,1.27
2022-12-11T03:59:39.505Z,1.21
2022-12-11T04:02:10.995Z,1.20
2022-12-11T04:04:38.838Z,1.25
2022-12-11T04:07:05.547Z,0.96
2022-12-11T04:09:32.688Z,1.24
2022-12-11T04:11:59.679Z,1.06
2022-12-11T04:14:45.416Z,1.23
2022-12-11T04:17:12.104Z,1.06
2022-12-11T04:19:57.177Z,1.29
2022-12-11T04:22:27.029Z,1.15
2022-12-11T04:24:53.738Z,1.28
2022-12-11T04:27:39.504Z,1.07
2022-12-11T04:30:08.887Z,1.31
2022-12-11T04:32:35.494Z,1.34
2022-12-11T04:35:02.253Z,1.32
2022-12-11T04:37:29.139Z,1.29
2022-12-11T04:39:55.823Z,1.27
2022-12-11T04:42:22.507Z,1.24
2022-12-11T04:44:49.233Z,1.17
2022-12-11T04:47:15.841Z,1.16
2022-12-11T04:49:42.719Z,1.30
2022-12-11T04:52:09.837Z,1.17
2022-12-11T04:54:36.547Z,1.17
2022-12-11T04:57:03.324Z,1.26
2022-12-11T04:59:30.296Z,1.22
2022-12-11T05:01:57.672Z,1.32
2022-12-11T05:04:24.385Z,1.33
2022-12-11T05:06:51.599Z,1.27
2022-12-11T05:09:18.368Z,1.09
2022-12-11T05:11:45.105Z,1.32
2022-12-11T05:14:11.875Z,1.38
2022-12-11T05:16:38.492Z,1.34
2022-12-11T05:19:05.280Z,1.34
2022-12-11T05:21:35.151Z,1.36
2022-12-11T05:24:02.680Z,1.40
2022-12-11T05:26:29.634Z,1.36
2022-12-11T05:28:56.443Z,1.33
2022-12-11T05:31:25.513Z,1.28
2022-12-11T05:33:53.041Z,1.42
2022-12-11T05:36:23.325Z,1.43
2022-12-11T05:38:50.847Z,1.43
2022-12-11T05:41:20.732Z,1.37
2022-12-11T05:43:48.459Z,1.32
2022-12-11T05:46:18.637Z,1.40
2022-12-11T05:48:47.682Z,1.37
2022-12-11T05:51:15.899Z,1.39
2022-12-11T05:53:44.447Z,1.38
2022-12-11T05:56:13.917Z,1.36
2022-12-11T05:58:41.548Z,1.28
2022-12-11T06:01:14.758Z,1.40
2022-12-11T06:03:41.770Z,1.42
2022-12-11T06:06:08.829Z,1.12
2022-12-11T06:08:35.734Z,1.48
2022-12-11T06:11:03.501Z,1.07
2022-12-11T06:13:30.956Z,1.44
2022-12-11T06:16:03.274Z,1.50
2022-12-11T06:18:30.173Z,1.46
2022-12-11T06:20:56.838Z,1.40
2022-12-11T06:23:24.090Z,1.42
2022-12-11T06:25:50.848Z,1.43
2022-12-11T06:28:17.561Z,1.42
2022-12-11T06:30:45.121Z,1.38
2022-12-11T06:33:12.128Z,0.93
2022-12-11T06:35:42.252Z,1.39
2022-12-11T06:38:10.820Z,1.24
2022-12-11T06:40:38.331Z,1.54
2022-12-11T06:43:05.092Z,1.55
2022-12-11T06:45:31.867Z,1.78
2022-12-11T06:47:59.005Z,1.97
2022-12-11T06:50:25.991Z,1.72
2022-12-11T06:52:52.703Z,2.05
2022-12-11T06:55:19.425Z,2.12
2022-12-11T06:57:46.019Z,2.13
2022-12-11T07:00:13.445Z,2.23
2022-12-11T07:02:40.123Z,2.12
2022-12-11T07:05:07.184Z,2.05
2022-12-11T07:07:34.591Z,1.77
2022-12-11T07:10:07.552Z,1.80
2022-12-11T07:12:35.463Z,1.80
2022-12-11T07:15:02.454Z,1.87
2022-12-11T07:17:30.105Z,1.60
2022-12-11T07:19:57.004Z,1.76
2022-12-11T07:22:23.668Z,1.67
2022-12-11T07:24:50.301Z,1.81
2022-12-11T07:27:16.979Z,1.77
2022-12-11T07:29:45.051Z,1.23
2022-12-11T07:32:11.969Z,1.82
2022-12-11T07:34:38.989Z,1.81
2022-12-11T07:37:05.979Z,1.88
2022-12-11T07:39:32.997Z,1.88
2022-12-11T07:42:00.090Z,1.88
2022-12-11T07:44:26.911Z,1.62
2022-12-11T07:46:53.552Z,1.83
2022-12-11T07:49:20.276Z,1.85
2022-12-11T07:51:46.965Z,1.47
2022-12-11T07:54:16.981Z,1.88
2022-12-11T07:56:49.790Z,1.78
2022-12-11T07:59:20.945Z,1.71
2022-12-11T08:01:47.856Z,1.81
2022-12-11T08:04:15.924Z,1.77
2022-12-11T08:06:43.175Z,1.78
2022-12-11T08:09:20.738Z,1.66
2022-12-11T08:11:50.490Z,1.59
2022-12-11T08:14:17.824Z,1.73
2022-12-11T08:16:44.762Z,1.68
2022-12-11T08:19:12.778Z,1.75
2022-12-11T08:21:40.178Z,1.71
2022-12-11T08:24:08.048Z,1.75
2022-12-11T08:26:34.854Z,1.75
2022-12-11T08:29:02.777Z,1.83
2022-12-11T08:31:30.040Z,1.70
2022-12-11T08:33:57.424Z,1.75
2022-12-11T08:36:25.273Z,1.78
2022-12-11T08:38:52.348Z,1.88
2022-12-11T08:41:22.178Z,1.91
2022-12-11T08:43:49.076Z,1.83
2022-12-11T08:46:16.190Z,1.63
2022-12-11T08:48:43.422Z,1.55
2022-12-11T08:51:15.885Z,1.77
2022-12-11T08:53:43.270Z,1.82
2022-12-11T08:56:12.868Z,1.88
2022-12-11T08:58:39.578Z,1.82
2022-12-11T09:01:12.568Z,2.00
2022-12-11T09:03:40.040Z,2.00
2022-12-11T09:06:09.018Z,1.98
2022-12-11T09:08:36.246Z,1.93
2022-12-11T09:11:12.250Z,2.03
2022-12-11T09:13:40.140Z,1.99
2022-12-11T09:16:09.682Z,1.88
2022-12-11T09:18:37.350Z,1.70
2022-12-11T09:21:09.834Z,1.89
2022-12-11T09:23:37.281Z,1.88
2022-12-11T09:26:06.302Z,1.77
2022-12-11T09:28:33.773Z,1.68
2022-12-11T09:31:00.847Z,1.92
2022-12-11T09:33:27.851Z,1.89
2022-12-11T09:35:59.409Z,1.98
2022-12-11T09:38:26.691Z,1.72
2022-12-11T09:40:53.700Z,1.91
2022-12-11T09:43:44.251Z,2.09
2022-12-11T09:46:13.964Z,2.10
2022-12-11T09:48:46.762Z,2.11
2022-12-11T09:51:31.848Z,2.12
2022-12-11T09:54:01.797Z,2.09
2022-12-11T09:56:33.483Z,2.16
2022-12-11T09:59:22.220Z,2.19
2022-12-11T10:02:11.081Z,2.20
2022-12-11T10:04:37.924Z,2.24
2022-12-11T10:07:29.895Z,1.80
2022-12-11T10:10:23.334Z,2.17
2022-12-11T10:13:04.629Z,2.17
2022-12-11T10:15:43.042Z,2.18
2022-12-11T10:18:16.053Z,2.18
2022-12-11T10:20:44.600Z,2.15
2022-12-11T10:23:22.449Z,2.24
2022-12-11T10:26:05.939Z,2.18
2022-12-11T10:28:32.707Z,2.30
2022-12-11T10:31:14.135Z,2.30
2022-12-11T10:34:00.990Z,2.23
2022-12-11T10:36:35.203Z,2.39
2022-12-11T10:39:02.935Z,2.37
2022-12-11T10:41:41.960Z,2.32
2022-12-11T10:44:19.511Z,2.37
2022-12-11T10:46:48.025Z,2.42
2022-12-11T10:49:26.688Z,2.48
2022-12-11T10:51:55.510Z,2.56
2022-12-11T10:54:38.403Z,2.58
2022-12-11T10:57:08.711Z,2.40
2022-12-11T10:59:38.144Z,2.63
2022-12-11T11:02:07.426Z,2.59
2022-12-11T11:04:38.082Z,2.70
2022-12-11T11:07:16.889Z,2.76
2022-12-11T11:09:43.544Z,2.64
2022-12-11T11:12:40.561Z,2.51
2022-12-11T11:15:13.940Z,2.69
2022-12-11T11:17:54.523Z,2.70
2022-12-11T11:20:29.227Z,2.77
2022-12-11T11:23:11.374Z,2.71
2022-12-11T11:25:38.067Z,2.65
2022-12-11T11:28:08.368Z,2.75
2022-12-11T11:30:41.794Z,2.67
2022-12-11T11:33:22.529Z,2.54
2022-12-11T11:35:53.475Z,2.69
2022-12-11T11:38:25.231Z,2.62
2022-12-11T11:41:31.813Z,2.66
2022-12-11T11:44:02.542Z,2.60
2022-12-11T11:47:10.767Z,2.66
2022-12-11T11:49:41.605Z,2.72
2022-12-11T11:52:17.805Z,2.70
2022-12-11T11:55:09.850Z,2.61
2022-12-11T11:57:51.345Z,2.76
2022-12-11T12:00:22.185Z,2.77
2022-12-11T12:02:54.915Z,2.52
2022-12-11T12:05:39.458Z,2.68
2022-12-11T12:08:41.471Z,2.73
2022-12-11T12:11:14.185Z,2.71
2022-12-11T12:13:50.038Z,2.63
2022-12-11T12:16:55.123Z,2.75
2022-12-11T12:19:43.803Z,2.86
2022-12-11T12:22:58.673Z,2.87
2022-12-11T12:25:45.688Z,2.93
2022-12-11T12:28:33.779Z,3.00
2022-12-11T12:31:03.812Z,3.03
2022-12-11T12:33:48.198Z,2.88
2022-12-11T12:36:20.035Z,3.08
2022-12-11T12:38:59.274Z,3.13
2022-12-11T12:41:35.593Z,3.11
2022-12-11T12:44:10.880Z,3.06
2022-12-11T12:46:52.238Z,3.05
2022-12-11T12:49:35.665Z,3.06
2022-12-11T12:52:04.730Z,3.05
2022-12-11T12:54:33.532Z,3.06
2022-12-11T12:57:04.209Z,2.89
2022-12-11T12:59:31.088Z,3.06
2022-12-11T13:02:01.647Z,2.95
2022-12-11T13:04:55.550Z,3.06
2022-12-11T13:07:29.680Z,2.87
2022-12-11T13:10:23.136Z,2.85
2022-12-11T13:12:50.220Z,2.81
2022-12-11T13:15:42.892Z,2.99
2022-12-11T13:18:31.632Z,2.92
2022-12-11T13:20:58.440Z,2.78
2022-12-11T13:23:33.923Z,2.79
2022-12-11T13:26:03.994Z,3.02
2022-12-11T13:28:48.163Z,3.02
2022-12-11T13:31:15.391Z,3.03
2022-12-11T13:33:47.096Z,2.99
2022-12-11T13:36:17.928Z,3.09
2022-12-11T13:38:55.057Z,3.11
2022-12-11T13:41:21.967Z,2.96
2022-12-11T13:43:50.557Z,2.98
2022-12-11T13:46:24.718Z,3.01
2022-12-11T13:49:18.186Z,2.89
2022-12-11T13:51:52.332Z,3.00
2022-12-11T13:54:19.538Z,2.92
2022-12-11T13:57:03.547Z,2.89
2022-12-11T13:59:35.125Z,2.86
2022-12-11T14:02:15.445Z,2.87
2022-12-11T14:04:42.761Z,2.93
2022-12-11T14:07:11.139Z,2.85
2022-12-11T14:09:43.567Z,2.84
2022-12-11T14:12:19.935Z,2.68
2022-12-11T14:14:54.954Z,2.95
2022-12-11T14:17:28.343Z,2.81
2022-12-11T14:19:57.628Z,2.74
2022-12-11T14:22:27.357Z,2.92
2022-12-11T14:24:56.580Z,2.99
2022-12-11T14:27:24.792Z,3.00
2022-12-11T14:29:51.841Z,2.99
2022-12-11T14:32:37.234Z,3.04
2022-12-11T14:35:07.251Z,3.03
2022-12-11T14:37:35.819Z,3.04
2022-12-11T14:40:07.917Z,2.91
2022-12-11T14:42:41.002Z,2.83
2022-12-11T14:45:19.212Z,2.85
2022-12-11T14:47:46.077Z,2.85
2022-12-11T14:50:19.036Z,2.82
2022-12-11T14:52:53.435Z,2.63
2022-12-11T14:55:25.225Z,2.70
2022-12-11T14:57:57.470Z,2.65
2022-12-11T15:00:29.220Z,2.70
2022-12-11T15:03:00.617Z,2.72
2022-12-11T15:05:28.108Z,2.61
2022-12-11T15:08:13.115Z,2.61
2022-12-11T15:10:55.454Z,2.48
2022-12-11T15:13:25.785Z,2.54
2022-12-11T15:15:55.235Z,2.46
2022-12-11T15:18:26.271Z,2.46
2022-12-11T15:20:55.032Z,2.41
2022-12-11T15:23:22.122Z,2.34
2022-12-11T15:25:54.466Z,2.41
2022-12-11T15:28:34.005Z,2.41
2022-12-11T15:31:06.846Z,2.35
2022-12-11T15:33:34.760Z,2.51
2022-12-11T15:36:22.069Z,2.59
2022-12-11T15:38:48.828Z,2.17
2022-12-11T15:41:20.960Z,2.35
2022-12-11T15:43:48.166Z,2.53
2022-12-11T15:46:15.015Z,2.39
2022-12-11T15:48:41.749Z,2.46
2022-12-11T15:51:09.876Z,2.49
2022-12-11T15:53:37.047Z,2.47
2022-12-11T15:56:03.978Z,2.34
2022-12-11T15:58:31.054Z,2.40
2022-12-11T16:00:57.959Z,2.47
2022-12-11T16:03:25.239Z,2.47
2022-12-11T16:05:53.184Z,2.47
2022-12-11T16:08:22.737Z,2.31
2022-12-11T16:10:52.748Z,2.41
2022-12-11T16:13:19.711Z,2.33
2022-12-11T16:15:48.855Z,2.46
2022-12-11T16:18:19.163Z,2.45
2022-12-11T16:20:47.171Z,2.31
2022-12-11T16:23:14.865Z,2.42
2022-12-11T16:25:42.496Z,2.38
2022-12-11T16:28:11.867Z,2.41
2022-12-11T16:30:38.695Z,2.33
2022-12-11T16:33:12.123Z,1.90
2022-12-11T16:35:39.174Z,2.30
2022-12-11T16:38:05.923Z,2.16
2022-12-11T16:40:32.522Z,2.32
2022-12-11T16:42:59.261Z,1.62
2022-12-11T16:45:26.861Z,2.07
2022-12-11T16:47:54.300Z,2.21
2022-12-11T16:50:22.849Z,2.28
2022-12-11T16:52:50.149Z,2.15
2022-12-11T16:55:21.109Z,1.73
2022-12-11T16:57:48.193Z,2.17
2022-12-11T17:00:15.862Z,2.17
2022-12-11T17:02:42.599Z,2.11
2022-12-11T17:05:09.631Z,2.03
2022-12-11T17:07:36.535Z,2.01
2022-12-11T17:10:03.570Z,1.97
2022-12-11T17:12:30.463Z,2.11
2022-12-11T17:14:57.479Z,2.08
2022-12-11T17:17:24.225Z,1.87
2022-12-11T17:19:51.064Z,2.08
2022-12-11T17:22:17.927Z,1.91
2022-12-11T17:24:44.729Z,1.90
2022-12-11T17:27:11.379Z,2.08
2022-12-11T17:29:38.287Z,2.02
2022-12-11T17:32:05.403Z,2.07
2022-12-11T17:34:37.770Z,1.99
2022-12-11T17:37:06.052Z,2.10
2022-12-11T17:39:33.509Z,2.09
2022-12-11T17:42:00.761Z,2.13
2022-12-11T17:44:30.625Z,2.02
2022-12-11T17:47:02.653Z,2.13
2022-12-11T17:49:35.561Z,2.13
2022-12-11T17:52:02.397Z,2.10
2022-12-11T17:54:29.302Z,2.08
2022-12-11T17:56:57.860Z,2.00
2022-12-11T17:59:24.711Z,2.05
2022-12-11T18:01:51.474Z,2.02
2022-12-11T18:04:18.394Z,1.89
2022-12-11T18:06:45.496Z,2.06
2022-12-11T18:09:12.526Z,2.03
2022-12-11T18:11:40.153Z,1.89
2022-12-11T18:14:10.079Z,2.03
2022-12-11T18:16:41.690Z,2.02
2022-12-11T18:19:08.797Z,1.86
2022-12-11T18:21:41.077Z,2.06
2022-12-11T18:24:09.668Z,1.88
2022-12-11T18:26:37.708Z,1.92
2022-12-11T18:29:04.751Z,1.95
2022-12-11T18:31:31.552Z,2.03
2022-12-11T18:33:58.425Z,2.08
2022-12-11T18:36:25.144Z,2.10
2022-12-11T18:38:52.048Z,2.02
2022-12-11T18:41:20.085Z,2.16
2022-12-11T18:43:46.872Z,2.15
2022-12-11T18:46:16.541Z,2.16
2022-12-11T18:48:44.750Z,2.14
2022-12-11T18:51:14.878Z,2.12
2022-12-11T18:53:41.545Z,2.11
2022-12-11T18:56:10.782Z,2.03
2022-12-11T18:58:37.966Z,2.06
2022-12-11T19:01:20.163Z,1.51
2022-12-11T19:03:47.678Z,1.49
2022-12-11T19:06:19.287Z,1.98
2022-12-11T19:08:46.930Z,1.78
2022-12-11T19:11:18.208Z,1.95
2022-12-11T19:13:45.420Z,1.77
2022-12-11T19:16:21.112Z,1.94
2022-12-11T19:18:48.752Z,1.87
2022-12-11T19:21:16.973Z,1.90
2022-12-11T19:23:45.021Z,1.89
2022-12-11T19:26:14.325Z,1.85
2022-12-11T19:28:41.521Z,1.74
2022-12-11T19:31:10.262Z,1.73
2022-12-11T19:33:37.269Z,1.57
2022-12-11T19:36:12.309Z,1.61
2022-12-11T19:38:40.402Z,1.76
2022-12-11T19:41:09.890Z,1.75
2022-12-11T19:43:37.218Z,1.63
2022-12-11T19:46:06.338Z,1.78
2022-12-11T19:48:33.097Z,1.58
2022-12-11T19:51:08.506Z,1.74
2022-12-11T19:53:36.149Z,1.75
2022-12-11T19:56:03.175Z,1.61
2022-12-11T19:58:30.125Z,1.60
2022-12-11T20:00:57.036Z,1.57
2022-12-11T20:03:23.786Z,1.73
2022-12-11T20:05:50.894Z,1.70
2022-12-11T20:08:43.590Z,1.66
2022-12-11T20:11:06.411Z,1.73
2022-12-11T20:13:33.267Z,1.58
2022-12-11T20:16:00.815Z,1.72
2022-12-11T20:18:27.661Z,1.67
2022-12-11T20:20:54.274Z,1.57
2022-12-11T20:23:20.972Z,1.71
2022-12-11T20:25:47.757Z,1.73
2022-12-11T20:28:14.443Z,1.65
2022-12-11T20:30:41.059Z,1.65
2022-12-11T20:33:08.030Z,1.61
2022-12-11T20:35:34.686Z,1.61
2022-12-11T20:38:01.964Z,1.67
2022-12-11T20:40:28.962Z,1.44
2022-12-11T20:42:55.612Z,1.61
2022-12-11T20:45:22.347Z,1.46
2022-12-11T20:47:49.151Z,1.56
2022-12-11T20:50:15.922Z,1.33
2022-12-11T20:52:42.643Z,1.54
2022-12-11T20:55:10.080Z,1.60
2022-12-11T20:57:43.378Z,1.63
2022-12-11T21:00:12.530Z,1.55
2022-12-11T22:13:26.251Z,1.22
2022-12-11T22:15:53.777Z,1.50
2022-12-11T22:18:20.742Z,1.27
2022-12-11T22:20:48.298Z,1.46
2022-12-11T22:23:14.961Z,1.26
2022-12-11T22:25:41.724Z,1.27
2022-12-11T22:28:08.692Z,1.47
2022-12-11T22:30:36.841Z,1.31
2022-12-11T22:33:03.830Z,1.58
2022-12-11T22:35:30.961Z,1.49
2022-12-11T22:37:57.591Z,1.51
2022-12-11T22:40:24.557Z,1.54
2022-12-11T22:42:51.557Z,1.40
2022-12-11T22:45:18.351Z,1.38
2022-12-11T22:47:48.260Z,1.41
2022-12-11T22:50:15.956Z,1.49
2022-12-11T22:52:44.809Z,1.35
2022-12-11T22:55:11.768Z,1.40
2022-12-11T22:57:39.120Z,1.45
2022-12-11T23:00:08.842Z,1.26
2022-12-11T23:02:36.601Z,1.42
2022-12-11T23:05:04.640Z,1.42
2022-12-11T23:07:31.638Z,1.32
2022-12-11T23:09:58.414Z,1.31
2022-12-11T23:12:25.408Z,1.36
2022-12-11T23:14:52.436Z,1.14
2022-12-11T23:17:19.101Z,1.35
2022-12-11T23:19:46.277Z,0.97
2022-12-11T23:22:13.476Z,1.25
2022-12-11T23:24:40.209Z,1.34
2022-12-11T23:27:07.133Z,1.15
2022-12-11T23:29:33.908Z,1.39
2022-12-11T23:32:00.954Z,1.35
2022-12-11T23:34:28.334Z,1.29
2022-12-11T23:36:54.985Z,1.37
2022-12-11T23:39:21.813Z,1.40
2022-12-11T23:41:48.646Z,1.04
2022-12-11T23:44:15.269Z,1.32
2022-12-11T23:46:42.705Z,1.15
2022-12-11T23:49:09.516Z,1.24
2022-12-11T23:51:36.211Z,1.16
2022-12-11T23:54:03.142Z,1.26
2022-12-11T23:56:30.401Z,1.13
2022-12-11T23:58:57.579Z,1.22
